Time;durP1;ratioP1;P1;durP2;ratioP2;P2;SDS_P1;SDS_P2;PMS_P1;PMS_P2;Temp;Humidity;BMP_temperature;BMP_pressure;BME280_temperature;BME280_humidity;BME280_pressure;Samples;Min_cycle;Max_cycle;Signal;HPM_P1;HPM_P2
2023/12/22 00:00:31;;;;;;;15.52;2.42;;;;;;;6.25;100.00;100165.53;6325606;22;20011;-94
2023/12/22 00:03:16;;;;;;;11.30;2.60;;;;;;;6.46;100.00;100208.72;6307128;22;20038;-94
2023/12/22 00:06:12;;;;;;;;;;;;;;;;;;;;;
2023/12/22 00:08:48;;;;;;;7.97;2.30;;;;;;;6.41;100.00;100185.03;6306928;22;20082;-94
2023/12/22 00:11:25;;;;;;;10.40;2.45;;;;;;;6.27;100.00;100176.94;6308745;22;20093;-94
2023/12/22 00:14:16;;;;;;;10.25;2.58;;;;;;;6.28;100.00;100154.19;6285270;22;20011;-93
2023/12/22 00:16:53;;;;;;;9.95;2.45;;;;;;;6.55;100.00;100206.25;6285916;22;20483;-93
2023/12/22 00:19:41;;;;;;;14.32;2.78;;;;;;;6.57;100.00;100235.19;6312896;22;20368;-94
2023/12/22 00:22:13;;;;;;;12.18;2.28;;;;;;;6.47;100.00;100242.00;6315483;22;20003;-93
2023/12/22 00:25:02;;;;;;;9.15;2.40;;;;;;;6.56;100.00;100259.66;6313985;22;20010;-95
2023/12/22 00:31:30;;;;;;;14.60;2.95;;;;;;;6.31;100.00;100206.75;6302801;22;20012;-93
2023/12/22 00:34:50;;;;;;;13.05;2.30;;;;;;;6.24;100.00;100216.22;6314705;22;20006;-92
2023/12/22 00:40:29;;;;;;;12.13;2.58;;;;;;;6.11;100.00;100203.75;6311433;22;20015;-94
2023/12/22 00:43:13;;;;;;;8.20;2.40;;;;;;;6.09;100.00;100196.72;6298725;22;20076;-93
2023/12/22 00:46:21;;;;;;;;;;;;;;;;;;;;;
2023/12/22 00:49:15;;;;;;;9.57;2.85;;;;;;;6.32;100.00;100215.50;6326561;22;20007;-95
2023/12/22 00:52:13;;;;;;;;;;;;;;;;;;;;;
2023/12/22 00:54:57;;;;;;;12.93;2.72;;;;;;;6.38;100.00;100233.94;6327381;22;20014;-94
2023/12/22 00:57:50;;;;;;;;;;;;;;;;;;;;;
2023/12/22 01:07:13;;;;;;;;;;;;;;;6.83;100.00;100269.75;6309563;22;20015;-94
2023/12/22 01:09:49;;;;;;;;;;;;;;;;;;;;;
2023/12/22 01:12:18;;;;;;;12.35;2.78;;;;;;;6.43;100.00;100212.19;6325082;22;20006;-93
2023/12/22 01:14:53;;;;;;;10.38;2.47;;;;;;;6.58;100.00;100232.56;6324654;22;20032;-93
2023/12/22 01:18:09;;;;;;;13.13;2.50;;;;;;;6.71;100.00;100254.66;6298500;22;20007;-94
2023/12/22 01:27:52;;;;;;;;;;;;;;;;;;;;;
2023/12/22 01:34:07;;;;;;;;;;;;;;;;;;;;;
2023/12/22 01:36:53;;;;;;;14.57;2.90;;;;;;;6.59;100.00;100225.56;6321774;22;20119;-94
2023/12/22 01:39:54;;;;;;;13.02;2.63;;;;;;;6.53;100.00;100215.84;6317479;22;20432;-95
2023/12/22 01:42:40;;;;;;;;;;;;;;;;;;;;;
2023/12/22 01:48:23;;;;;;;;;;;;;;;;;;;;;
2023/12/22 01:54:33;;;;;;;14.80;2.78;;;;;;;6.86;100.00;100246.16;6354769;22;20017;-95
2023/12/22 01:57:12;;;;;;;15.88;2.92;;;;;;;6.76;100.00;100230.22;6277134;22;20021;-95
2023/12/22 01:59:58;;;;;;;;;;;;;;;;;;;;;
2023/12/22 02:02:27;;;;;;;9.90;2.40;;;;;;;6.93;99.26;100256.75;6331374;22;20007;-95
2023/12/22 02:05:11;;;;;;;;;;;;;;;;;;;;;
2023/12/22 02:07:55;;;;;;;14.30;3.10;;;;;;;6.78;96.49;100225.91;6342861;22;20041;-95
2023/12/22 02:13:32;;;;;;;15.55;3.60;;;;;;;6.89;96.04;100241.81;6334765;22;20014;-94
2023/12/22 02:16:15;;;;;;;12.45;2.83;;;;;;;6.92;96.20;100230.50;6329955;22;20005;-95
2023/12/22 02:19:06;;;;;;;9.85;2.90;;;;;;;7.12;97.25;100268.47;6355956;22;20010;-94
2023/12/22 02:21:54;;;;;;;16.48;3.10;;;;;;;7.34;97.29;100298.56;6315482;22;20093;-95
2023/12/22 02:24:30;;;;;;;13.98;3.00;;;;;;;7.31;96.30;100298.50;6310213;22;20014;-95
2023/12/22 02:27:29;;;;;;;16.52;2.90;;;;;;;6.89;97.44;100222.56;6325700;22;20075;-95
2023/12/22 02:30:16;;;;;;;14.75;3.00;;;;;;;7.00;95.21;100231.50;6351331;22;20032;-94
2023/12/22 02:33:05;;;;;;;15.65;3.03;;;;;;;7.14;95.07;100269.34;6357637;22;20003;-93
2023/12/22 02:36:03;;;;;;;;;;;;;;;;;;;;;
2023/12/22 02:38:38;;;;;;;14.07;2.90;;;;;;;7.14;94.25;100268.47;6352470;22;20021;-95
2023/12/22 02:41:15;;;;;;;11.73;2.70;;;;;;;7.03;90.63;100247.31;6349184;22;20039;-95
2023/12/22 02:43:41;;;;;;;12.10;2.55;;;;;;;7.10;89.01;100237.75;6294985;22;20063;-95
2023/12/22 02:46:47;;;;;;;17.98;3.20;;;;;;;7.35;90.40;100265.28;6346450;22;20413;-96
2023/12/22 02:49:32;;;;;;;16.33;3.33;;;;;;;7.16;91.98;100236.13;6350148;22;19999;-95
2023/12/22 02:55:19;;;;;;;;;;;;;;;;;;;;;
2023/12/22 02:57:53;;;;;;;10.55;2.38;;;;;;;7.31;92.34;100256.47;6325996;22;20035;-95
2023/12/22 03:00:42;;;;;;;;;;;;;;;;;;;;;
2023/12/22 03:03:18;;;;;;;;;;;;;;;;;;;;;
2023/12/22 03:05:47;;;;;;;12.50;2.80;;;;;;;7.44;95.48;100304.84;6341198;22;20069;-95
2023/12/22 03:08:24;;;;;;;;;;;;;;;;;;;;;
2023/12/22 03:11:03;;;;;;;18.67;3.67;;;;;;;7.35;96.80;100286.31;6318231;22;20033;-95
2023/12/22 03:13:52;;;;;;;14.82;3.00;;;;;;;6.91;97.81;100210.34;6288422;22;20017;-95
2023/12/22 03:16:30;;;;;;;;;;;;;;;;;;;;;
2023/12/22 03:19:25;;;;;;;11.80;2.78;;;;;;;6.81;99.37;100183.06;6339870;22;20078;-96
2023/12/22 03:25:14;;;;;;;;;;;;;;;;;;;;;
2023/12/22 03:27:52;;;;;;;14.00;2.67;;;;;;;6.74;100.00;100213.59;6324338;22;20101;-96
2023/12/22 03:30:22;;;;;;;15.45;3.20;;;;;;;6.92;100.00;100233.13;6312257;22;20443;-94
2023/12/22 03:33:00;;;;;;;10.18;2.53;;;;;;;6.78;100.00;100215.41;6285562;22;20003;-95
2023/12/22 03:35:28;;;;;;;19.83;3.17;;;;;;;7.00;100.00;100247.25;6288999;22;20007;-96
2023/12/22 03:38:01;;;;;;;13.48;2.75;;;;;;;6.99;100.00;100259.50;6340005;22;20014;-95
2023/12/22 03:40:42;;;;;;;15.85;3.03;;;;;;;6.96;100.00;100243.69;6312132;22;20003;-95
2023/12/22 03:43:22;;;;;;;14.50;3.10;;;;;;;6.97;100.00;100240.19;6338189;22;20363;-95
2023/12/22 03:46:10;;;;;;;13.27;2.58;;;;;;;7.12;100.00;100255.31;6306403;22;20718;-95
2023/12/22 03:48:49;;;;;;;11.27;2.70;;;;;;;6.98;100.00;100230.56;6306363;22;20014;-95
2023/12/22 03:51:17;;;;;;;13.25;2.60;;;;;;;6.94;100.00;100223.53;6306423;22;20006;-95
2023/12/22 03:54:03;;;;;;;12.73;2.67;;;;;;;7.02;100.00;100238.56;6307621;22;20010;-94
2023/12/22 03:56:29;;;;;;;11.00;2.70;;;;;;;7.25;100.00;100261.66;6281331;22;20007;-95
2023/12/22 03:59:23;;;;;;;11.77;2.55;;;;;;;7.15;100.00;100239.63;6306172;22;20326;-94
2023/12/22 04:02:07;;;;;;;12.88;2.60;;;;;;;7.37;99.72;100258.31;6307321;22;20003;-95
2023/12/22 04:04:40;;;;;;;14.40;2.85;;;;;;;7.24;98.74;100252.00;6280851;22;20014;-94
2023/12/22 04:07:17;;;;;;;;;;;;;;;;;;;;;
2023/12/22 04:10:03;;;;;;;14.90;2.70;;;;;;;7.31;98.59;100264.34;6307134;22;20086;-94
2023/12/22 04:12:39;;;;;;;11.52;2.60;;;;;;;7.26;98.38;100247.63;6305763;22;20011;-94
2023/12/22 04:15:15;;;;;;;13.82;2.83;;;;;;;7.24;98.08;100246.75;6307844;22;20351;-95
2023/12/22 04:17:52;;;;;;;15.55;2.67;;;;;;;7.25;98.17;100254.66;6307327;22;20014;-94
2023/12/22 04:20:28;;;;;;;13.07;2.90;;;;;;;7.27;97.90;100252.91;6307118;22;20066;-95
2023/12/22 04:22:54;;;;;;;12.68;2.78;;;;;;;7.31;97.33;100252.97;6306455;22;20007;-94
2023/12/22 04:25:32;;;;;;;;;;;;;;;;;;;;;
2023/12/22 04:28:01;;;;;;;19.48;3.00;;;;;;;7.56;97.10;100293.63;6307693;22;20070;-95
2023/12/22 04:30:43;;;;;;;14.63;2.92;;;;;;;7.69;97.29;100319.22;6306499;22;20030;-95
2023/12/22 04:33:36;;;;;;;14.37;2.97;;;;;;;7.49;97.21;100277.78;6308132;22;20034;-95
2023/12/22 04:36:16;;;;;;;10.77;2.45;;;;;;;7.42;96.04;100270.66;6307809;22;20243;-95
2023/12/22 04:38:49;;;;;;;12.52;2.78;;;;;;;7.67;95.30;100324.47;6306370;22;20007;-95
2023/12/22 04:41:25;;;;;;;10.35;2.88;;;;;;;7.46;94.50;100276.84;6306092;22;20325;-95
2023/12/22 04:43:55;;;;;;;14.23;2.85;;;;;;;7.42;93.60;100275.91;6280590;22;20007;-96
2023/12/22 04:46:28;;;;;;;11.90;2.30;;;;;;;7.59;92.53;100296.31;6255729;22;20030;-94
2023/12/22 04:49:27;;;;;;;;;;;;;;;;;;;;;
2023/12/22 04:52:00;;;;;;;10.88;2.45;;;;;;;7.45;92.32;100278.59;6307712;22;20330;-94
2023/12/22 04:54:30;;;;;;;16.83;3.20;;;;;;;7.70;92.39;100305.22;6280902;22;20007;-95
2023/12/22 04:56:58;;;;;;;11.10;2.55;;;;;;;7.56;92.08;100291.88;6307303;22;20094;-94
2023/12/22 04:59:35;;;;;;;12.55;2.60;;;;;;;7.92;92.90;100354.63;6309409;22;20000;-95
2023/12/22 05:02:03;;;;;;;13.77;3.17;;;;;;;7.63;92.65;100295.50;6283949;22;20043;-95
2023/12/22 05:04:35;;;;;;;15.13;2.88;;;;;;;7.74;92.90;100322.78;6309459;22;20129;-94
2023/12/22 05:07:13;;;;;;;12.00;2.63;;;;;;;7.59;93.38;100297.19;6308375;22;20018;-95
2023/12/22 05:09:51;;;;;;;7.90;2.10;;;;;;;7.77;94.83;100323.72;6308199;22;20007;-94
2023/12/22 05:12:36;;;;;;;16.48;2.90;;;;;;;7.92;94.67;100343.19;6308327;22;20011;-95
2023/12/22 05:15:15;;;;;;;13.25;2.78;;;;;;;7.89;95.53;100341.44;6308017;22;20071;-95
2023/12/22 05:17:43;;;;;;;16.65;3.15;;;;;;;7.74;95.41;100297.38;6307458;22;20098;-95
2023/12/22 05:20:11;;;;;;;13.23;2.70;;;;;;;7.69;97.03;100287.66;6309462;22;20433;-95
2023/12/22 05:22:44;;;;;;;10.45;2.50;;;;;;;7.97;97.51;100338.91;6307842;22;20003;-95
2023/12/22 05:28:29;;;;;;;;;;;;;;;;;;;;;
2023/12/22 05:31:19;;;;;;;;;;;;;;;;;;;;;
2023/12/22 05:34:13;;;;;;;15.23;2.70;;;;;;;7.99;100.00;100368.72;6308285;22;20086;-93
2023/12/22 05:40:14;;;;;;;;;;;;;;;;;;;;;
2023/12/22 05:43:00;;;;;;;11.65;2.40;;;;;;;7.51;100.00;100269.91;6292512;22;20050;-94
2023/12/22 05:49:00;;;;;;;11.73;3.00;;;;;;;7.98;100.00;100335.41;6267952;22;20018;-94
2023/12/22 05:51:35;;;;;;;14.43;3.15;;;;;;;7.57;100.00;100276.97;6287110;22;20038;-94
2023/12/22 05:54:19;;;;;;;;;;;;;;;;;;;;;
2023/12/22 05:56:56;;;;;;;18.33;3.85;;;;;;;8.01;100.00;100343.34;6310061;22;20083;-95
2023/12/22 06:02:19;;;;;;;24.60;3.75;;;;;;;7.95;100.00;100322.19;6303936;22;20094;-95
2023/12/22 06:05:02;;;;;;;22.95;4.00;;;;;;;7.70;100.00;100265.75;6309661;22;20450;-96
2023/12/22 06:07:44;;;;;;;17.95;3.65;;;;;;;7.92;100.00;100296.75;6309412;22;20432;-95
2023/12/22 06:10:29;;;;;;;19.63;3.60;;;;;;;7.74;100.00;100278.97;6284137;22;20047;-96
2023/12/22 06:13:26;;;;;;;20.45;3.60;;;;;;;8.11;100.00;100341.72;6310099;22;20031;-94
2023/12/22 06:19:49;;;;;;;21.20;3.63;;;;;;;7.69;100.00;100264.00;6260438;22;20007;-96
2023/12/22 06:22:24;;;;;;;27.42;3.83;;;;;;;7.73;100.00;100266.69;6307083;22;20015;-95
2023/12/22 06:24:58;;;;;;;17.40;3.30;;;;;;;7.81;100.00;100284.31;6307422;22;20042;-95
2023/12/22 06:27:36;;;;;;;;;;;;;;;;;;;;;
2023/12/22 06:30:42;;;;;;;18.20;3.90;;;;;;;7.79;100.00;100281.66;6307630;22;20082;-95
2023/12/22 06:33:26;;;;;;;24.85;4.60;;;;;;;7.71;100.00;100268.44;6306814;22;20030;-94
2023/12/22 06:36:32;;;;;;;21.80;3.88;;;;;;;7.72;100.00;100270.19;6307082;22;20011;-95
2023/12/22 06:39:20;;;;;;;24.85;4.22;;;;;;;7.87;100.00;100318.59;6306015;22;20034;-95
2023/12/22 06:45:51;;;;;;;28.00;4.65;;;;;;;7.84;100.00;100302.78;6259176;22;20342;-95
2023/12/22 06:48:32;;;;;;;;;;;;;;;;;;;;;
2023/12/22 06:51:31;;;;;;;26.40;4.55;;;;;;;7.80;100.00;100272.03;6283960;22;20082;-96
2023/12/22 06:54:01;;;;;;;31.92;4.75;;;;;;;7.84;100.00;100273.84;6308859;22;20448;-94
2023/12/22 06:56:44;;;;;;;29.40;4.85;;;;;;;8.03;100.00;100310.91;6283415;22;20011;-95
2023/12/22 06:59:31;;;;;;;27.30;5.00;;;;;;;8.26;100.00;100331.34;6308314;22;20224;-95
2023/12/22 07:02:06;;;;;;;21.58;4.68;;;;;;;8.01;100.00;100283.72;6307713;22;20007;-94
2023/12/22 07:10:48;;;;;;;24.27;4.25;;;;;;;8.06;100.00;100272.34;6308526;22;20317;-95
2023/12/22 07:13:33;;;;;;;22.85;4.18;;;;;;;8.44;100.00;100334.25;6309095;22;20006;-96
2023/12/22 07:16:22;;;;;;;27.83;4.68;;;;;;;8.16;100.00;100288.25;6284599;22;20061;-96
2023/12/22 07:19:13;;;;;;;23.17;4.15;;;;;;;8.31;100.00;100290.19;6309025;22;20055;-96
2023/12/22 07:21:54;;;;;;;26.92;5.18;;;;;;;8.06;100.00;100272.34;6277038;22;20007;-95
2023/12/22 07:24:28;;;;;;;25.52;4.63;;;;;;;8.35;100.00;100326.22;6284518;22;20106;-94
2023/12/22 07:27:06;;;;;;;24.50;4.45;;;;;;;8.52;100.00;100353.66;6308624;22;20078;-95
2023/12/22 07:29:44;;;;;;;35.38;5.22;;;;;;;8.17;100.00;100273.34;6307878;22;20388;-95
2023/12/22 07:32:33;;;;;;;29.95;4.97;;;;;;;8.16;100.00;100259.31;6307576;22;20007;-96
2023/12/22 07:35:30;;;;;;;27.35;4.63;;;;;;;8.46;100.00;100318.47;6306480;22;20004;-96
2023/12/22 07:37:58;;;;;;;28.33;5.20;;;;;;;8.21;100.00;100262.88;6301445;22;20425;-94
2023/12/22 07:40:31;;;;;;;24.40;4.63;;;;;;;8.17;100.00;100247.91;6307145;22;20337;-95
2023/12/22 07:43:14;;;;;;;;;;;;;;;;;;;;;
2023/12/22 07:45:51;;;;;;;21.40;4.43;;;;;;;8.26;100.00;100261.19;6316751;22;20093;-95
2023/12/22 07:48:26;;;;;;;31.73;5.03;;;;;;;8.41;100.00;100285.94;6312390;22;20019;-95
2023/12/22 07:50:52;;;;;;;25.98;4.53;;;;;;;8.28;100.00;100272.59;6339287;22;20030;-96
2023/12/22 07:53:17;;;;;;;22.90;4.43;;;;;;;8.21;100.00;100243.56;6339604;22;20415;-95
2023/12/22 07:56:04;;;;;;;;;;;;;;;;;;;;;
2023/12/22 07:58:42;;;;;;;21.65;5.07;;;;;;;8.31;100.00;100261.25;6344260;22;20035;-93
2023/12/22 08:01:18;;;;;;;30.13;5.40;;;;;;;8.32;100.00;100260.38;6312529;22;20053;-94
2023/12/22 08:04:09;;;;;;;24.48;4.80;;;;;;;8.36;100.00;100262.16;6316988;22;20059;-93
2023/12/22 08:06:45;;;;;;;;;;;;;;;;;;;;;
2023/12/22 08:09:16;;;;;;;19.05;4.93;;;;;;;8.75;100.00;100343.34;6342525;22;20036;-95
2023/12/22 08:11:56;;;;;;;;;;;;;;;;;;;;;
2023/12/22 08:14:36;;;;;;;23.25;4.43;;;;;;;8.32;100.00;100259.47;6315413;22;20090;-95
2023/12/22 08:17:13;;;;;;;26.45;5.13;;;;;;;8.78;100.00;100339.88;6286664;22;20011;-94
2023/12/22 08:19:44;;;;;;;21.02;4.60;;;;;;;8.42;100.00;100264.00;6314783;22;20425;-95
2023/12/22 08:22:15;;;;;;;17.73;3.67;;;;;;;8.67;100.00;100305.50;6313920;22;20439;-95
2023/12/22 08:24:47;;;;;;;20.05;4.07;;;;;;;8.46;100.00;100263.16;6339771;22;20011;-96
2023/12/22 08:27:29;;;;;;;22.15;4.20;;;;;;;8.60;100.00;100287.00;6313422;22;20030;-96
2023/12/22 08:30:27;;;;;;;19.17;4.50;;;;;;;8.88;100.00;100333.81;6341803;22;20022;-95
2023/12/22 08:36:07;;;;;;;19.40;3.72;;;;;;;8.53;100.00;100278.16;6299015;22;20083;-95
2023/12/22 08:38:40;;;;;;;15.48;3.45;;;;;;;8.51;100.00;100264.97;6320725;22;19999;-96
2023/12/22 08:41:18;;;;;;;21.42;4.15;;;;;;;8.55;100.00;100273.78;6342454;22;20007;-93
2023/12/22 08:43:45;;;;;;;15.70;3.38;;;;;;;8.63;100.00;100258.94;6314774;22;20007;-95
2023/12/22 08:46:45;;;;;;;16.45;3.20;;;;;;;8.75;100.00;100290.66;6307342;22;20019;-96
2023/12/22 08:49:11;;;;;;;19.20;3.33;;;;;;;8.81;100.00;100303.00;6285131;22;20007;-95
2023/12/22 08:51:36;;;;;;;12.45;2.90;;;;;;;8.62;100.00;100256.31;6311230;22;20003;-96
2023/12/22 08:54:04;;;;;;;14.45;3.17;;;;;;;8.60;100.00;100252.75;6309738;22;20004;-94
2023/12/22 08:56:29;;;;;;;13.23;3.08;;;;;;;8.76;100.00;100288.91;6313514;22;20015;-95
2023/12/22 08:59:15;;;;;;;13.27;2.60;;;;;;;9.00;100.00;100307.56;6312759;22;20011;-94
2023/12/22 09:01:41;;;;;;;13.25;3.10;;;;;;;8.59;100.00;100236.06;6307899;22;20078;-96
2023/12/22 09:04:15;;;;;;;12.95;3.10;;;;;;;8.60;100.00;100239.59;6309242;22;20072;-93
2023/12/22 09:06:45;;;;;;;9.73;2.40;;;;;;;8.66;100.00;100239.66;6307698;22;20019;-93
2023/12/22 09:09:10;;;;;;;11.95;2.50;;;;;;;8.56;100.00;100219.34;6310894;22;20042;-93
2023/12/22 09:11:39;;;;;;;12.40;2.65;;;;;;;8.67;100.00;100230.88;6308141;22;20414;-93
2023/12/22 09:14:16;;;;;;;10.48;2.70;;;;;;;8.64;100.00;100231.72;6307419;22;20029;-92
2023/12/22 09:16:44;;;;;;;11.43;2.33;;;;;;;8.80;100.00;100259.09;6306886;22;20333;-91
2023/12/22 09:19:12;;;;;;;9.00;2.53;;;;;;;9.02;100.00;100297.03;6307804;22;20003;-93
2023/12/22 09:21:43;;;;;;;9.05;2.35;;;;;;;8.96;100.00;100283.81;6308033;22;20031;-93
2023/12/22 09:24:16;;;;;;;9.90;2.38;;;;;;;8.74;100.00;100252.03;6307597;22;20007;-94
2023/12/22 09:26:47;;;;;;;9.35;2.20;;;;;;;9.11;100.00;100305.00;6309359;22;20004;-94
2023/12/22 09:29:12;;;;;;;8.45;2.20;;;;;;;8.90;100.00;100267.94;6309941;22;20007;-92
2023/12/22 09:31:38;;;;;;;10.60;2.63;;;;;;;9.08;100.00;100293.56;6308518;22;20115;-94
2023/12/22 09:34:05;;;;;;;9.10;2.47;;;;;;;8.98;100.00;100256.59;6315041;22;20045;-96
2023/12/22 09:36:31;;;;;;;8.82;2.40;;;;;;;9.08;100.00;100275.09;6309117;22;20008;-94
2023/12/22 09:39:28;;;;;;;9.25;2.20;;;;;;;9.27;100.00;100300.75;6310168;22;20094;-94
2023/12/22 09:41:54;;;;;;;5.75;2.17;;;;;;;8.90;100.00;100220.50;6284251;22;20015;-93
2023/12/22 09:44:27;;;;;;;5.78;1.83;;;;;;;9.17;100.00;100264.66;6306936;22;20027;-93
2023/12/22 09:46:55;;;;;;;6.88;1.88;;;;;;;9.12;100.00;100250.53;6306997;22;20030;-93
2023/12/22 09:49:25;;;;;;;7.57;1.73;;;;;;;9.22;100.00;100262.94;6308395;22;20011;-90
2023/12/22 09:51:59;;;;;;;8.23;2.10;;;;;;;9.35;100.00;100283.22;6307432;22;20430;-93
2023/12/22 09:54:26;;;;;;;5.68;2.10;;;;;;;9.24;100.00;100269.97;6310350;22;20003;-91
2023/12/22 09:56:53;;;;;;;4.82;1.70;;;;;;;9.26;100.00;100267.34;6308201;22;20485;-90
2023/12/22 09:59:20;;;;;;;7.05;2.10;;;;;;;9.11;100.00;100230.34;6306814;22;20007;-92
2023/12/22 10:01:50;;;;;;;8.23;2.20;;;;;;;9.27;100.00;100237.47;6312680;22;20021;-96
2023/12/22 10:04:25;;;;;;;4.30;1.80;;;;;;;9.56;100.00;100284.25;6313669;22;20078;-96
2023/12/22 10:07:04;;;;;;;6.30;2.20;;;;;;;9.58;100.00;100293.03;6285946;22;20012;-91
2023/12/22 10:09:31;;;;;;;6.57;1.92;;;;;;;9.36;100.00;100250.72;6308318;22;20467;-91
2023/12/22 10:12:01;;;;;;;8.93;2.05;;;;;;;9.48;100.00;100271.00;6308995;22;20042;-91
2023/12/22 10:14:47;;;;;;;8.65;2.38;;;;;;;9.30;100.00;100216.41;6306588;22;20004;-92
2023/12/22 10:17:16;;;;;;;6.60;2.20;;;;;;;9.28;100.00;100219.00;6306702;22;20007;-92
2023/12/22 10:19:46;;;;;;;5.50;1.80;;;;;;;9.70;100.00;100291.34;6307645;22;20013;-92
2023/12/22 10:22:32;;;;;;;6.47;2.17;;;;;;;9.57;100.00;100260.50;6306539;22;20010;-93
2023/12/22 10:25:17;;;;;;;8.88;2.25;;;;;;;9.54;100.00;100253.44;6306813;22;20008;-95
2023/12/22 10:27:43;;;;;;;5.20;1.85;;;;;;;9.51;100.00;100249.94;6307641;22;20372;-88
2023/12/22 10:30:09;;;;;;;6.05;2.03;;;;;;;9.57;100.00;100262.25;6307857;22;20056;-88
2023/12/22 10:32:43;;;;;;;9.82;2.08;;;;;;;9.45;100.00;100237.56;6306067;22;20008;-87
2023/12/22 10:35:12;;;;;;;6.93;1.95;;;;;;;9.51;100.00;100249.94;6305807;22;20013;-92
2023/12/22 10:37:37;;;;;;;6.30;2.17;;;;;;;9.49;100.00;100230.56;6307250;22;20060;-91
2023/12/22 10:40:08;;;;;;;6.22;2.20;;;;;;;9.76;100.00;100285.22;6307734;22;20004;-91
2023/12/22 10:42:35;;;;;;;6.47;2.03;;;;;;;9.67;100.00;100257.03;6306177;22;20035;-92
2023/12/22 10:45:01;;;;;;;5.60;1.90;;;;;;;9.84;100.00;100285.25;6308552;22;20031;-93
2023/12/22 10:47:30;;;;;;;5.68;2.20;;;;;;;9.89;100.00;100302.88;6284204;22;20452;-93
2023/12/22 10:50:01;;;;;;;3.85;2.00;;;;;;;9.75;100.00;100264.97;6308530;22;20012;-95
2023/12/22 10:52:49;;;;;;;6.43;2.10;;;;;;;9.82;100.00;100279.09;6308910;22;20003;-96
2023/12/22 10:55:20;;;;;;;6.82;2.10;;;;;;;9.62;100.00;100248.22;6290263;22;20340;-91
2023/12/22 10:57:49;;;;;;;6.40;1.92;;;;;;;9.77;100.00;100271.16;6315371;22;20011;-91
2023/12/22 11:00:19;;;;;;;8.85;2.30;;;;;;;9.56;100.00;100234.13;6306839;22;20000;-88
2023/12/22 11:02:48;;;;;;;7.05;2.08;;;;;;;9.86;100.00;100281.75;6307432;22;20298;-87
2023/12/22 11:05:17;;;;;;;8.68;2.20;;;;;;;9.95;100.00;100288.84;6306867;22;20003;-90
2023/12/22 11:07:48;;;;;;;6.65;2.15;;;;;;;9.90;100.00;100282.66;6307490;22;20087;-86
2023/12/22 11:10:18;;;;;;;5.68;2.10;;;;;;;9.97;100.00;100292.34;6307569;22;20007;-86
2023/12/22 11:12:44;;;;;;;7.85;2.20;;;;;;;9.97;100.00;100279.16;6315216;22;20018;-88
2023/12/22 11:15:11;;;;;;;7.10;2.05;;;;;;;9.93;100.00;100269.44;6316224;22;20009;-88
2023/12/22 11:17:40;;;;;;;7.53;1.92;;;;;;;9.90;100.00;100269.47;6318591;22;20014;-87
2023/12/22 11:20:06;;;;;;;7.38;2.10;;;;;;;9.91;100.00;100243.06;6318450;22;20055;-87
2023/12/22 11:22:33;;;;;;;10.88;2.42;;;;;;;10.00;100.00;100276.53;6315552;22;20014;-87
2023/12/22 11:25:00;;;;;;;5.85;2.10;;;;;;;10.05;100.00;100272.13;6315003;22;20101;-89
2023/12/22 11:27:26;;;;;;;9.43;2.00;;;;;;;10.08;100.00;100273.94;6313011;22;20018;-87
2023/12/22 11:29:52;;;;;;;10.40;2.30;;;;;;;10.03;100.00;100269.50;6312751;22;20080;-85
2023/12/22 11:32:19;;;;;;;8.50;2.10;;;;;;;10.13;100.00;100275.69;6312960;22;20012;-87
2023/12/22 11:34:46;;;;;;;7.43;2.30;;;;;;;10.05;100.00;100251.03;6313527;22;20086;-88
2023/12/22 11:37:15;;;;;;;7.45;2.10;;;;;;;10.18;100.00;100254.59;6311973;22;20003;-87
2023/12/22 11:39:42;;;;;;;6.40;2.10;;;;;;;10.19;100.00;100259.88;6286494;22;20019;-88
2023/12/22 11:42:11;;;;;;;8.27;2.15;;;;;;;10.13;100.00;100241.38;6313387;22;20011;-86
2023/12/22 11:44:36;;;;;;;5.80;1.92;;;;;;;10.24;100.00;100267.81;6311303;22;20025;-86
2023/12/22 11:47:09;;;;;;;8.15;2.17;;;;;;;10.11;100.00;100222.03;6307178;22;20094;-87
2023/12/22 11:49:36;;;;;;;5.72;2.05;;;;;;;10.25;100.00;100259.94;6305496;22;20014;-87
2023/12/22 11:52:13;;;;;;;9.13;2.45;;;;;;;10.26;100.00;100255.53;6308344;22;20065;-85
2023/12/22 11:54:53;;;;;;;10.43;2.40;;;;;;;10.27;100.00;100249.34;6307310;22;20073;-85
2023/12/22 11:57:28;;;;;;;9.38;2.45;;;;;;;10.25;100.00;100262.56;6306617;22;20008;-85
2023/12/22 11:59:58;;;;;;;7.28;2.10;;;;;;;10.16;100.00;100233.47;6306503;22;20005;-89
2023/12/22 12:02:23;;;;;;;7.80;2.28;;;;;;;10.07;100.00;100217.63;6306805;22;20072;-86
2023/12/22 12:04:50;;;;;;;6.60;2.17;;;;;;;10.23;100.00;100237.00;6307231;22;20438;-86
2023/12/22 12:07:40;;;;;;;7.72;2.30;;;;;;;10.29;100.00;100250.25;6310110;22;20061;-91
2023/12/22 12:10:08;;;;;;;7.97;2.20;;;;;;;10.26;100.00;100215.91;6308170;22;20006;-89
2023/12/22 12:12:34;;;;;;;7.95;2.00;;;;;;;10.26;100.00;100252.88;6309377;22;20010;-88
2023/12/22 12:15:07;;;;;;;6.10;2.20;;;;;;;10.11;100.00;100223.78;6307965;22;20010;-86
2023/12/22 12:17:32;;;;;;;8.57;2.70;;;;;;;10.15;100.00;100260.75;6309138;22;20008;-87
2023/12/22 12:19:59;;;;;;;10.15;2.28;;;;;;;10.15;100.00;100239.63;6308519;22;20080;-87
2023/12/22 12:22:26;;;;;;;9.20;2.20;;;;;;;10.12;100.00;100234.34;6307792;22;20008;-85
2023/12/22 12:24:51;;;;;;;8.02;2.28;;;;;;;10.04;100.00;100210.56;6307787;22;20003;-88
2023/12/22 12:27:20;;;;;;;5.78;2.05;;;;;;;10.16;100.00;100219.38;6309116;22;20007;-86
2023/12/22 12:29:45;;;;;;;8.38;2.42;;;;;;;10.16;100.00;100222.91;6333756;22;20089;-90
2023/12/22 12:32:14;;;;;;;11.23;2.30;;;;;;;10.07;100.00;100207.06;6310329;22;20007;-89
2023/12/22 12:34:42;;;;;;;6.80;1.98;;;;;;;10.17;100.00;100229.94;6310082;22;20027;-89
2023/12/22 12:37:08;;;;;;;12.48;3.25;;;;;;;10.21;100.00;100225.56;6310379;22;20495;-93
2023/12/22 12:39:35;;;;;;;11.35;2.85;;;;;;;10.23;100.00;100218.50;6308415;22;20007;-89
2023/12/22 12:42:04;;;;;;;6.63;2.20;;;;;;;10.25;100.00;100207.13;6310010;22;19999;-92
2023/12/22 12:44:32;;;;;;;12.23;2.58;;;;;;;10.21;100.00;100178.91;6309637;22;20003;-91
2023/12/22 12:46:57;;;;;;;8.02;2.20;;;;;;;10.34;100.00;100232.66;6321627;22;20007;-89
2023/12/22 12:49:27;;;;;;;6.28;1.92;;;;;;;10.36;100.00;100230.00;6313476;22;20089;-93
2023/12/22 12:51:53;;;;;;;4.47;2.15;;;;;;;10.27;100.00;100207.97;6314231;22;20074;-89
2023/12/22 12:54:18;;;;;;;6.15;2.10;;;;;;;10.38;100.00;100199.22;6340224;22;20030;-88
2023/12/22 12:56:45;;;;;;;7.20;2.05;;;;;;;10.36;100.00;100228.25;6339551;22;20025;-89
2023/12/22 12:59:11;;;;;;;6.88;1.90;;;;;;;10.36;100.00;100228.25;6340189;22;20127;-90
2023/12/22 13:01:41;;;;;;;9.15;2.17;;;;;;;10.41;100.00;100229.16;6339568;22;20006;-90
2023/12/22 13:04:07;;;;;;;6.90;2.08;;;;;;;10.42;100.00;100228.28;6351899;22;20038;-90
2023/12/22 13:06:33;;;;;;;8.13;2.10;;;;;;;10.30;100.00;100207.13;6339902;22;20321;-91
2023/12/22 13:08:58;;;;;;;9.02;2.60;;;;;;;10.41;100.00;100225.63;6340011;22;20321;-89
2023/12/22 13:11:31;;;;;;;10.15;2.55;;;;;;;10.40;100.00;100218.56;6288702;22;20014;-88
2023/12/22 13:13:56;;;;;;;8.55;2.20;;;;;;;10.32;100.00;100208.03;6339731;22;19999;-89
2023/12/22 13:16:29;;;;;;;9.32;2.15;;;;;;;10.31;100.00;100229.13;6314025;22;20014;-90
2023/12/22 13:18:56;;;;;;;7.25;2.10;;;;;;;10.40;100.00;100244.97;6312426;22;20328;-90
2023/12/22 13:21:22;;;;;;;8.25;2.35;;;;;;;10.40;100.00;100256.41;6318588;22;20013;-91
2023/12/22 13:23:47;;;;;;;6.07;2.20;;;;;;;10.36;100.00;100230.00;6340680;22;20011;-89
2023/12/22 13:26:20;;;;;;;10.35;2.40;;;;;;;10.39;100.00;100245.88;6312030;22;20123;-91
2023/12/22 13:28:45;;;;;;;9.10;2.05;;;;;;;10.43;100.00;100245.88;6312208;22;20078;-88
2023/12/22 13:31:14;;;;;;;10.65;2.55;;;;;;;10.41;100.00;100225.63;6340082;22;20050;-92
2023/12/22 13:33:40;;;;;;;6.07;2.55;;;;;;;10.46;100.00;100250.28;6339783;22;20007;-93
2023/12/22 13:36:06;;;;;;;6.93;2.28;;;;;;;10.47;100.00;100250.28;6339230;22;20035;-91
2023/12/22 13:38:33;;;;;;;8.18;2.50;;;;;;;10.47;100.00;100259.97;6339182;22;20094;-91
2023/12/22 13:41:01;;;;;;;8.55;2.40;;;;;;;10.42;100.00;100245.88;6311979;22;20010;-90
2023/12/22 13:43:30;;;;;;;8.10;2.22;;;;;;;10.34;100.00;100242.34;6339253;22;20277;-91
2023/12/22 13:45:57;;;;;;;7.13;2.05;;;;;;;10.39;100.00;100249.38;6345277;22;20045;-92
2023/12/22 13:48:23;;;;;;;10.20;2.40;;;;;;;10.42;100.00;100261.72;6339731;22;20038;-92
2023/12/22 13:50:58;;;;;;;10.70;2.30;;;;;;;10.39;100.00;100251.16;6311885;22;20052;-89
2023/12/22 13:53:24;;;;;;;7.28;2.17;;;;;;;10.26;100.00;100216.78;6343159;22;20003;-90